createdAt,value
2022-08-07T00:01:44.664Z,61.50
2022-08-07T00:04:05.862Z,61.50
2022-08-07T00:06:33.941Z,61.60
2022-08-07T00:09:16.942Z,61.70
2022-08-07T00:11:55.572Z,61.80
2022-08-07T00:14:30.000Z,61.80
2022-08-07T00:17:02.433Z,61.90
2022-08-07T00:19:59.874Z,62.10
2022-08-07T00:22:24.409Z,62.10
2022-08-07T00:25:06.988Z,62.30
2022-08-07T00:27:51.927Z,62.30
2022-08-07T00:30:27.619Z,62.40
2022-08-07T00:33:02.667Z,62.50
2022-08-07T00:35:30.445Z,62.50
2022-08-07T00:38:01.138Z,62.60
2022-08-07T00:40:39.425Z,62.70
2022-08-07T00:43:09.853Z,62.70
2022-08-07T00:45:41.343Z,62.70
2022-08-07T00:48:13.585Z,62.80
2022-08-07T00:50:46.572Z,62.80
2022-08-07T00:53:20.618Z,62.80
2022-08-07T00:56:00.485Z,62.90
2022-08-07T00:58:31.403Z,63.00
2022-08-07T01:00:59.288Z,63.20
2022-08-07T01:03:55.675Z,63.30
2022-08-07T01:06:14.672Z,63.50
2022-08-07T01:08:53.520Z,63.60
2022-08-07T01:12:23.538Z,63.60
2022-08-07T01:14:10.474Z,63.70
2022-08-07T01:16:38.200Z,63.70
2022-08-07T01:19:14.899Z,63.70
2022-08-07T01:21:47.666Z,63.70
2022-08-07T01:24:21.203Z,63.80
2022-08-07T01:26:52.068Z,63.80
2022-08-07T01:29:27.768Z,63.90
2022-08-07T01:31:59.923Z,63.90
2022-08-07T01:34:32.887Z,64.00
2022-08-07T01:37:09.618Z,64.00
2022-08-07T01:39:41.386Z,64.10
2022-08-07T01:42:57.445Z,64.20
2022-08-07T01:45:36.459Z,64.30
2022-08-07T01:48:20.386Z,64.30
2022-08-07T01:51:24.235Z,64.40
2022-08-07T01:54:12.076Z,64.40
2022-08-07T01:57:05.811Z,64.50
2022-08-07T01:59:46.104Z,64.50
2022-08-07T02:03:12.058Z,64.60
2022-08-07T02:05:43.194Z,64.60
2022-08-07T02:08:19.139Z,64.70
2022-08-07T02:10:58.057Z,64.80
2022-08-07T02:13:56.752Z,64.80
2022-08-07T02:16:19.634Z,64.70
2022-08-07T02:18:51.171Z,64.80
2022-08-07T02:21:19.806Z,64.80
2022-08-07T02:23:47.797Z,64.80
2022-08-07T02:26:32.538Z,64.80
2022-08-07T02:29:02.643Z,64.90
2022-08-07T02:31:32.584Z,64.90
2022-08-07T02:34:11.074Z,65.00
2022-08-07T02:36:46.113Z,65.10
2022-08-07T02:39:42.493Z,65.30
2022-08-07T02:42:10.380Z,65.30
2022-08-07T02:44:48.207Z,65.50
2022-08-07T02:47:23.328Z,65.50
2022-08-07T02:49:57.529Z,65.60
2022-08-07T02:52:33.191Z,65.70
2022-08-07T02:55:27.673Z,65.70
2022-08-07T02:57:55.757Z,65.70
2022-08-07T03:00:25.680Z,65.70
2022-08-07T03:02:55.554Z,65.80
2022-08-07T03:05:24.867Z,65.70
2022-08-07T03:08:04.807Z,65.70
2022-08-07T03:10:36.038Z,65.60
2022-08-07T03:13:10.224Z,65.50
2022-08-07T03:15:55.641Z,65.50
2022-08-07T03:18:34.178Z,65.60
2022-08-07T03:21:04.578Z,65.60
2022-08-07T03:24:19.662Z,65.70
2022-08-07T03:26:27.982Z,65.70
2022-08-07T03:28:56.956Z,65.80
2022-08-07T03:31:42.262Z,65.90
2022-08-07T03:34:18.548Z,65.80
2022-08-07T03:36:53.628Z,65.90
2022-08-07T03:39:45.764Z,66.00
2022-08-07T03:42:12.281Z,66.10
2022-08-07T03:44:41.261Z,66.20
2022-08-07T03:47:14.242Z,66.20
2022-08-07T03:49:47.697Z,66.20
2022-08-07T03:52:26.092Z,66.40
2022-08-07T03:55:06.469Z,66.50
2022-08-07T03:58:32.675Z,66.50
2022-08-07T04:00:30.677Z,66.50
2022-08-07T04:03:03.969Z,66.50
2022-08-07T04:05:40.375Z,66.40
2022-08-07T04:08:16.331Z,66.30
2022-08-07T04:10:54.001Z,66.30
2022-08-07T04:14:10.457Z,66.30
2022-08-07T04:16:31.122Z,66.50
2022-08-07T04:19:12.599Z,66.50
2022-08-07T04:21:58.961Z,66.60
2022-08-07T04:24:38.886Z,66.70
2022-08-07T04:27:20.713Z,66.80
2022-08-07T04:30:01.349Z,66.80
2022-08-07T04:32:58.417Z,66.90
2022-08-07T04:35:35.332Z,67.00
2022-08-07T04:38:08.229Z,67.10
2022-08-07T04:40:51.923Z,67.20
2022-08-07T04:44:12.927Z,67.30
2022-08-07T04:46:29.435Z,67.40
2022-08-07T04:49:18.371Z,67.40
2022-08-07T04:52:10.313Z,67.40
2022-08-07T04:54:55.346Z,67.40
2022-08-07T04:58:16.379Z,67.40
2022-08-07T05:01:02.732Z,67.60
2022-08-07T05:04:07.091Z,67.70
2022-08-07T05:06:53.118Z,67.70
2022-08-07T05:09:46.282Z,67.90
2022-08-07T05:12:30.368Z,68.00
2022-08-07T05:15:23.058Z,68.10
2022-08-07T05:18:09.342Z,68.20
2022-08-07T05:20:43.722Z,68.40
2022-08-07T05:23:23.050Z,68.50
2022-08-07T05:26:13.347Z,68.60
2022-08-07T05:28:49.969Z,68.60
2022-08-07T05:31:23.088Z,68.80
2022-08-07T05:34:04.791Z,68.90
2022-08-07T05:36:39.232Z,68.90
2022-08-07T05:40:18.016Z,69.00
2022-08-07T05:42:06.403Z,69.20
2022-08-07T05:44:41.504Z,69.60
2022-08-07T05:47:19.995Z,69.80
2022-08-07T05:49:51.202Z,70.10
2022-08-07T05:52:32.221Z,70.30
2022-08-07T05:55:10.372Z,70.70
2022-08-07T05:57:42.252Z,71.10
2022-08-07T06:00:16.172Z,71.40
2022-08-07T06:02:53.246Z,71.50
2022-08-07T06:05:28.224Z,71.50
2022-08-07T06:08:13.236Z,71.50
2022-08-07T06:10:51.315Z,71.70
2022-08-07T06:14:12.436Z,72.10
2022-08-07T06:16:13.376Z,72.50
2022-08-07T06:18:43.337Z,72.60
2022-08-07T06:22:16.519Z,72.90
2022-08-07T06:24:52.316Z,72.90
2022-08-07T06:26:54.612Z,73.20
2022-08-07T06:29:29.921Z,73.60
2022-08-07T06:31:57.235Z,73.90
2022-08-07T06:34:25.657Z,74.00
2022-08-07T06:36:57.913Z,74.10
2022-08-07T06:40:16.869Z,74.10
2022-08-07T06:42:33.123Z,74.20
2022-08-07T06:45:17.925Z,74.50
2022-08-07T06:47:58.571Z,74.70
2022-08-07T06:50:47.673Z,74.50
2022-08-07T06:55:29.876Z,74.20
2022-08-07T06:56:15.544Z,73.90
2022-08-07T07:00:12.146Z,73.60
2022-08-07T07:01:42.029Z,73.00
2022-08-07T07:04:28.488Z,72.50
2022-08-07T07:07:02.038Z,72.20
2022-08-07T07:09:31.800Z,71.80
2022-08-07T07:12:15.659Z,71.50
2022-08-07T07:15:03.346Z,71.20
2022-08-07T07:17:54.057Z,70.70
2022-08-07T07:20:29.809Z,70.20
2022-08-07T07:24:09.776Z,69.90
2022-08-07T07:26:33.835Z,69.80
2022-08-07T07:29:39.595Z,69.80
2022-08-07T07:31:51.530Z,69.40
2022-08-07T07:34:30.939Z,69.00
2022-08-07T07:37:14.585Z,68.70
2022-08-07T07:39:54.486Z,68.50
2022-08-07T07:42:32.552Z,67.90
2022-08-07T07:45:06.185Z,67.70
2022-08-07T07:47:42.955Z,67.60
2022-08-07T07:50:35.484Z,67.50
2022-08-07T07:53:20.519Z,67.00
2022-08-07T07:56:00.407Z,65.50
2022-08-07T07:58:40.649Z,64.90
2022-08-07T08:02:02.708Z,64.70
2022-08-07T08:04:10.736Z,64.90
2022-08-07T08:06:50.673Z,64.70
2022-08-07T08:09:23.291Z,63.20
2022-08-07T08:12:01.624Z,63.00
2022-08-07T08:14:36.259Z,62.50
2022-08-07T08:17:55.385Z,61.70
2022-08-07T08:20:17.057Z,61.60
2022-08-07T08:23:04.854Z,61.70
2022-08-07T08:25:56.451Z,61.90
2022-08-07T08:28:37.644Z,61.70
2022-08-07T08:31:15.579Z,61.40
2022-08-07T08:33:49.705Z,60.80
2022-08-07T08:36:18.587Z,60.20
2022-08-07T08:38:55.536Z,60.00
2022-08-07T08:41:59.408Z,60.00
2022-08-07T08:44:47.025Z,59.30
2022-08-07T08:47:21.935Z,58.40
2022-08-07T08:50:19.271Z,57.40
2022-08-07T08:53:22.627Z,57.00
2022-08-07T08:56:12.564Z,56.20
2022-08-07T08:59:06.321Z,55.40
2022-08-07T09:01:49.206Z,54.90
2022-08-07T09:04:28.781Z,54.20
2022-08-07T09:07:25.124Z,53.70
2022-08-07T09:09:59.423Z,52.30
2022-08-07T09:12:53.258Z,50.30
2022-08-07T09:16:22.935Z,49.70
2022-08-07T09:19:53.487Z,50.60
2022-08-07T09:24:52.390Z,50.90
2022-08-07T09:25:58.572Z,50.90
2022-08-07T09:29:24.538Z,50.20
2022-08-07T09:31:48.549Z,50.30
2022-08-07T09:34:29.843Z,48.80
2022-08-07T09:37:20.531Z,48.60
2022-08-07T09:40:26.607Z,48.50
2022-08-07T09:44:03.118Z,47.70
2022-08-07T09:47:50.259Z,47.50
2022-08-07T09:50:20.944Z,45.70
2022-08-07T09:52:51.939Z,46.00
2022-08-07T09:55:29.371Z,45.80
2022-08-07T09:58:42.308Z,45.80
2022-08-07T10:01:51.762Z,45.40
2022-08-07T10:04:32.776Z,45.20
2022-08-07T10:07:31.661Z,45.20
2022-08-07T10:10:21.506Z,45.60
2022-08-07T10:13:54.673Z,46.00
2022-08-07T10:16:30.639Z,45.00
2022-08-07T10:19:18.651Z,44.20
2022-08-07T10:22:24.885Z,44.10
2022-08-07T10:25:09.360Z,43.10
2022-08-07T10:27:57.087Z,44.00
2022-08-07T10:30:57.852Z,43.10
2022-08-07T10:34:17.965Z,42.90
2022-08-07T10:37:15.405Z,42.60
2022-08-07T10:40:08.842Z,43.10
2022-08-07T10:42:41.196Z,43.50
2022-08-07T10:45:14.290Z,42.60
2022-08-07T10:47:54.069Z,42.70
2022-08-07T10:50:28.204Z,43.20
2022-08-07T10:53:09.077Z,43.60
2022-08-07T10:55:50.927Z,43.10
2022-08-07T10:58:47.979Z,42.80
2022-08-07T11:01:51.918Z,43.00
2022-08-07T11:05:10.286Z,44.00
2022-08-07T11:08:02.625Z,44.20
2022-08-07T11:10:38.975Z,44.00
2022-08-07T11:14:42.607Z,43.60
2022-08-07T11:16:33.675Z,42.90
2022-08-07T11:19:04.622Z,41.80
2022-08-07T11:22:01.298Z,41.60
2022-08-07T11:24:38.098Z,41.10
2022-08-07T11:27:21.271Z,41.20
2022-08-07T11:30:18.179Z,41.40
2022-08-07T11:32:52.738Z,41.30
2022-08-07T11:35:34.088Z,41.60
2022-08-07T11:38:17.415Z,41.20
2022-08-07T11:41:22.093Z,41.30
2022-08-07T11:44:12.083Z,38.90
2022-08-07T11:47:08.537Z,38.10
2022-08-07T11:50:31.544Z,38.00
2022-08-07T11:53:09.880Z,38.70
2022-08-07T11:56:19.808Z,39.80
2022-08-07T11:59:22.202Z,40.70
2022-08-07T12:02:11.574Z,40.00
2022-08-07T12:05:15.306Z,39.00
2022-08-07T12:08:04.022Z,39.50
2022-08-07T12:11:00.890Z,38.10
2022-08-07T12:13:53.705Z,37.40
2022-08-07T12:16:30.160Z,38.20
2022-08-07T12:19:21.612Z,38.80
2022-08-07T12:22:38.090Z,39.00
2022-08-07T12:26:21.596Z,38.30
2022-08-07T12:28:53.944Z,37.60
2022-08-07T12:32:04.209Z,37.00
2022-08-07T12:34:38.871Z,37.70
2022-08-07T12:37:16.797Z,37.30
2022-08-07T12:39:53.047Z,37.80
2022-08-07T12:42:27.979Z,37.40
2022-08-07T12:44:58.782Z,37.90
2022-08-07T12:47:30.776Z,37.80
2022-08-07T12:50:38.460Z,38.00
2022-08-07T12:53:19.270Z,37.90
2022-08-07T12:56:17.243Z,37.40
2022-08-07T12:58:56.909Z,37.40
2022-08-07T13:01:32.045Z,35.40
2022-08-07T13:04:09.769Z,35.70
2022-08-07T13:07:00.943Z,35.60
2022-08-07T13:10:20.792Z,36.00
2022-08-07T13:13:10.849Z,36.50
2022-08-07T13:16:07.371Z,36.60
2022-08-07T13:18:49.111Z,36.90
2022-08-07T13:21:37.624Z,37.10
2022-08-07T13:24:29.426Z,36.10
2022-08-07T13:27:20.644Z,34.40
2022-08-07T13:30:06.809Z,35.00
2022-08-07T13:33:05.094Z,35.30
2022-08-07T13:36:05.389Z,35.70
2022-08-07T13:38:45.432Z,35.40
2022-08-07T13:41:42.605Z,35.40
2022-08-07T13:44:26.183Z,35.40
2022-08-07T13:46:59.512Z,34.90
2022-08-07T13:50:33.064Z,34.30
2022-08-07T13:52:32.507Z,34.80
2022-08-07T13:55:13.247Z,34.70
2022-08-07T13:58:01.695Z,34.80
2022-08-07T14:00:50.388Z,34.70
2022-08-07T14:03:29.618Z,34.60
2022-08-07T14:06:12.898Z,34.00
2022-08-07T14:08:45.382Z,33.80
2022-08-07T14:11:19.445Z,34.10
2022-08-07T14:13:55.887Z,33.80
2022-08-07T14:16:31.605Z,33.90
2022-08-07T14:19:03.237Z,34.30
2022-08-07T14:22:03.389Z,34.90
2022-08-07T14:24:35.580Z,35.10
2022-08-07T14:28:09.836Z,35.00
2022-08-07T14:30:07.186Z,35.10
2022-08-07T14:32:47.203Z,34.60
2022-08-07T14:35:43.273Z,34.10
2022-08-07T14:38:26.523Z,34.10
2022-08-07T14:41:12.433Z,34.50
2022-08-07T14:43:57.107Z,33.90
2022-08-07T14:46:31.965Z,33.70
2022-08-07T14:52:04.865Z,34.10
2022-08-07T14:54:42.929Z,34.70
2022-08-07T14:57:19.304Z,34.20
2022-08-07T15:00:05.237Z,33.50
2022-08-07T15:02:35.217Z,34.00
2022-08-07T15:05:20.550Z,34.40
2022-08-07T15:07:53.377Z,35.00
2022-08-07T15:13:19.907Z,35.50
2022-08-07T15:15:52.478Z,35.50
2022-08-07T15:18:28.566Z,35.50
2022-08-07T15:21:08.194Z,35.40
2022-08-07T15:26:47.249Z,35.30
2022-08-07T15:30:08.800Z,35.10
2022-08-07T15:32:06.618Z,35.00
2022-08-07T15:34:50.819Z,35.20
2022-08-07T15:37:27.678Z,35.10
2022-08-07T15:39:59.009Z,34.70
2022-08-07T15:42:43.966Z,34.70
2022-08-07T15:45:56.196Z,35.10
2022-08-07T15:48:27.342Z,35.20
2022-08-07T15:51:09.506Z,35.30
2022-08-07T15:53:56.071Z,35.50
2022-08-07T15:56:38.222Z,35.60
2022-08-07T15:59:20.264Z,35.70
2022-08-07T16:02:08.517Z,35.90
2022-08-07T16:04:37.920Z,35.80
2022-08-07T16:08:32.607Z,35.60
2022-08-07T16:10:14.812Z,35.80
2022-08-07T16:13:59.438Z,36.00
2022-08-07T16:16:47.540Z,36.00
2022-08-07T16:19:43.128Z,36.40
2022-08-07T16:22:55.071Z,36.70
2022-08-07T16:25:54.491Z,36.60
2022-08-07T16:30:06.346Z,36.60
2022-08-07T16:31:58.636Z,36.60
2022-08-07T16:34:48.500Z,36.50
2022-08-07T16:38:09.203Z,36.80
2022-08-07T16:41:14.388Z,37.10
2022-08-07T16:44:35.677Z,37.40
2022-08-07T16:47:36.018Z,37.60
2022-08-07T16:50:35.907Z,38.00
2022-08-07T16:53:55.441Z,38.30
2022-08-07T16:55:58.243Z,38.40
2022-08-07T16:59:10.546Z,38.40
2022-08-07T17:01:49.153Z,38.60
2022-08-07T17:04:34.979Z,38.60
2022-08-07T17:07:55.383Z,38.80
2022-08-07T17:10:54.182Z,38.70
2022-08-07T17:14:19.133Z,38.90
2022-08-07T17:16:56.096Z,39.10
2022-08-07T17:20:01.780Z,39.10
2022-08-07T17:22:44.093Z,39.40
2022-08-07T17:25:51.161Z,39.70
2022-08-07T17:28:19.445Z,39.70
2022-08-07T17:31:17.027Z,40.20
2022-08-07T17:34:15.429Z,40.60
2022-08-07T17:36:59.908Z,40.80
2022-08-07T17:40:08.193Z,41.20
2022-08-07T17:42:36.023Z,41.30
2022-08-07T17:45:35.228Z,41.40
2022-08-07T17:48:34.223Z,41.60
2022-08-07T17:51:21.266Z,41.80
2022-08-07T17:54:39.828Z,42.10
2022-08-07T17:57:58.865Z,42.50
2022-08-07T18:00:34.702Z,42.60
2022-08-07T18:03:27.673Z,42.70
2022-08-07T18:06:02.944Z,42.80
2022-08-07T18:08:33.454Z,43.10
2022-08-07T18:11:53.934Z,43.20
2022-08-07T18:14:54.719Z,43.40
2022-08-07T18:18:46.658Z,43.80
2022-08-07T18:21:10.624Z,44.20
2022-08-07T18:23:43.721Z,44.30
2022-08-07T18:26:01.853Z,44.40
2022-08-07T18:28:58.299Z,44.50
2022-08-07T18:31:33.758Z,44.70
2022-08-07T18:34:53.267Z,45.10
2022-08-07T18:38:55.108Z,45.30
2022-08-07T18:40:53.532Z,45.60
2022-08-07T18:43:58.166Z,45.80
2022-08-07T18:47:03.707Z,46.10
2022-08-07T18:50:38.769Z,46.30
2022-08-07T18:53:16.542Z,46.60
2022-08-07T18:55:58.088Z,46.80
2022-08-07T18:59:47.086Z,47.10
2022-08-07T19:02:36.325Z,47.30
2022-08-07T19:05:16.064Z,47.60
2022-08-07T19:08:06.179Z,47.70
2022-08-07T19:10:49.632Z,48.00
2022-08-07T19:13:35.636Z,48.20
2022-08-07T19:16:43.135Z,48.30
2022-08-07T19:19:13.154Z,48.60
2022-08-07T19:22:04.701Z,48.80
2022-08-07T19:24:46.160Z,48.90
2022-08-07T19:28:30.007Z,49.20
2022-08-07T19:31:01.321Z,49.20
2022-08-07T19:33:12.926Z,49.50
2022-08-07T19:35:42.511Z,49.70
2022-08-07T19:38:17.734Z,50.00
2022-08-07T19:40:49.472Z,50.30
2022-08-07T19:43:50.052Z,50.50
2022-08-07T19:46:18.874Z,50.70
2022-08-07T19:49:04.550Z,50.70
2022-08-07T19:51:52.343Z,50.80
2022-08-07T19:54:34.861Z,51.00
2022-08-07T19:58:02.712Z,51.20
2022-08-07T20:00:08.819Z,51.30
2022-08-07T20:02:51.778Z,51.50
2022-08-07T20:05:27.828Z,51.70
2022-08-07T20:08:02.573Z,51.80
2022-08-07T20:10:55.149Z,51.90
2022-08-07T20:13:41.820Z,52.10
2022-08-07T20:16:22.386Z,52.20
2022-08-07T20:19:04.480Z,52.40
2022-08-07T20:21:41.894Z,52.50
2022-08-07T20:24:19.696Z,52.70
2022-08-07T20:26:51.996Z,52.80
2022-08-07T20:29:49.494Z,53.00
2022-08-07T20:32:25.535Z,53.10
2022-08-07T20:34:57.449Z,53.20
2022-08-07T20:37:29.349Z,53.20
2022-08-07T20:40:03.159Z,53.30
2022-08-07T20:42:33.503Z,53.40
2022-08-07T20:45:01.624Z,53.50
2022-08-07T20:47:56.376Z,53.70
2022-08-07T20:50:22.311Z,53.80
2022-08-07T20:52:51.394Z,53.90
2022-08-07T20:55:23.961Z,54.00
2022-08-07T20:58:02.355Z,54.00
2022-08-07T21:00:46.011Z,54.10
2022-08-07T21:03:16.918Z,54.20
2022-08-07T21:06:12.414Z,54.20
2022-08-07T21:09:13.826Z,54.40
2022-08-07T21:11:50.531Z,54.50
2022-08-07T21:14:34.452Z,54.60
2022-08-07T21:18:02.602Z,54.60
2022-08-07T21:20:04.563Z,54.80
2022-08-07T21:22:39.752Z,54.90
2022-08-07T21:25:22.647Z,55.00
2022-08-07T21:28:49.748Z,55.20
2022-08-07T21:32:43.160Z,55.30
2022-08-07T21:34:46.245Z,55.40
2022-08-07T21:37:25.903Z,55.60
2022-08-07T21:40:06.345Z,55.70
2022-08-07T21:43:04.514Z,55.80
2022-08-07T21:46:08.532Z,55.90
2022-08-07T21:49:27.034Z,56.00
2022-08-07T21:52:33.259Z,56.20
2022-08-07T21:55:13.952Z,56.30
2022-08-07T21:58:30.009Z,56.40
2022-08-07T22:01:17.724Z,56.50
2022-08-07T22:04:00.806Z,56.60
2022-08-07T22:06:37.027Z,56.70
2022-08-07T22:09:13.727Z,56.80
2022-08-07T22:12:05.831Z,57.00
2022-08-07T22:14:59.138Z,57.10
2022-08-07T22:17:36.815Z,57.30
2022-08-07T22:20:24.763Z,57.40
2022-08-07T22:22:59.072Z,57.50
2022-08-07T22:25:39.607Z,57.50
2022-08-07T22:28:31.253Z,57.50
2022-08-07T22:31:56.117Z,57.60
2022-08-07T22:34:31.710Z,57.70
2022-08-07T22:37:17.033Z,57.80
2022-08-07T22:40:10.519Z,58.00
2022-08-07T22:42:41.596Z,58.00
2022-08-07T22:46:21.488Z,58.10
2022-08-07T22:48:31.388Z,58.10
2022-08-07T22:51:27.047Z,58.20
2022-08-07T22:54:15.224Z,58.30
2022-08-07T22:57:01.099Z,58.40
2022-08-07T22:59:45.850Z,58.40
2022-08-07T23:02:34.826Z,58.40
2022-08-07T23:06:09.433Z,58.50
2022-08-07T23:08:55.865Z,58.60
2022-08-07T23:11:51.629Z,58.70
2022-08-07T23:14:55.835Z,58.80
2022-08-07T23:17:29.748Z,58.90
2022-08-07T23:20:18.427Z,58.90
2022-08-07T23:24:05.888Z,58.90
2022-08-07T23:26:23.479Z,58.90
2022-08-07T23:28:57.721Z,59.00
2022-08-07T23:34:19.443Z,59.10
2022-08-07T23:35:12.355Z,59.10
2022-08-07T23:38:01.621Z,59.10
2022-08-07T23:40:49.303Z,59.20
2022-08-07T23:43:38.089Z,59.30
2022-08-07T23:46:34.668Z,59.40
2022-08-07T23:49:15.471Z,59.50
2022-08-07T23:52:58.835Z,59.50
2022-08-07T23:55:04.601Z,59.60
2022-08-07T23:57:47.474Z,59.80
